Time;durP1;ratioP1;P1;durP2;ratioP2;P2;SDS_P1;SDS_P2;PMS_P1;PMS_P2;Temp;Humidity;BMP_temperature;BMP_pressure;BME280_temperature;BME280_humidity;BME280_pressure;Samples;Min_cycle;Max_cycle;Signal;HPM_P1;HPM_P2
2022/06/30 00:01:00;;;;;;;0.30;0.30;;;18.30;99.90;;;;;;5068372;28;20175;-76
2022/06/30 00:03:26;;;;;;;0.30;0.30;;;18.20;99.90;;;;;;5068529;28;20244;-75
2022/06/30 00:05:51;;;;;;;0.30;0.30;;;18.20;99.90;;;;;;5068630;28;20194;-75
2022/06/30 00:08:17;;;;;;;0.30;0.30;;;18.20;99.90;;;;;;5068876;28;20182;-75
2022/06/30 00:10:43;;;;;;;0.30;0.30;;;18.10;99.90;;;;;;5068220;28;20174;-76
2022/06/30 00:13:08;;;;;;;0.30;0.30;;;18.10;99.90;;;;;;5067149;28;20195;-76
2022/06/30 00:15:35;;;;;;;0.33;0.33;;;18.00;99.90;;;;;;5068375;28;20297;-75
2022/06/30 00:18:01;;;;;;;0.37;0.37;;;18.00;99.90;;;;;;5068369;28;20224;-75
2022/06/30 00:20:27;;;;;;;0.30;0.30;;;17.90;99.90;;;;;;5067959;28;20182;-75
2022/06/30 00:22:52;;;;;;;0.30;0.30;;;17.80;99.90;;;;;;5067904;28;20194;-75
2022/06/30 00:25:18;;;;;;;0.30;0.30;;;17.70;99.90;;;;;;5068771;28;20166;-75
2022/06/30 00:27:44;;;;;;;0.30;0.30;;;17.70;99.90;;;;;;5068097;28;20253;-75
2022/06/30 00:30:10;;;;;;;0.40;0.40;;;17.70;99.90;;;;;;5067692;28;20201;-74
2022/06/30 00:32:35;;;;;;;0.40;0.40;;;17.70;99.90;;;;;;5067886;28;20195;-74
2022/06/30 00:35:01;;;;;;;0.30;0.30;;;17.70;99.90;;;;;;5067799;28;20260;-75
2022/06/30 00:37:27;;;;;;;0.30;0.30;;;17.60;99.90;;;;;;5067997;28;20171;-75
2022/06/30 00:39:53;;;;;;;0.30;0.30;;;17.60;99.90;;;;;;5067408;28;20174;-75
2022/06/30 00:42:18;;;;;;;0.30;0.30;;;17.60;99.90;;;;;;5067714;28;20609;-75
2022/06/30 00:44:44;;;;;;;0.40;0.40;;;17.60;99.90;;;;;;5067721;28;20193;-74
2022/06/30 00:47:10;;;;;;;0.30;0.30;;;17.60;99.90;;;;;;5059506;28;20183;-75
2022/06/30 00:49:37;;;;;;;0.30;0.30;;;17.50;99.90;;;;;;5054187;28;20206;-75
2022/06/30 00:52:06;;;;;;;0.30;0.30;;;17.50;99.90;;;;;;5054646;28;20568;-74
2022/06/30 00:54:34;;;;;;;0.30;0.30;;;17.50;99.90;;;;;;5054295;28;20628;-74
2022/06/30 00:57:00;;;;;;;0.30;0.30;;;17.50;99.90;;;;;;5054453;28;20190;-74
2022/06/30 00:59:27;;;;;;;0.40;0.40;;;17.50;99.90;;;;;;5053962;28;20180;-75
2022/06/30 01:01:53;;;;;;;0.30;0.30;;;17.50;99.90;;;;;;5054235;28;20278;-74
2022/06/30 01:04:19;;;;;;;0.30;0.30;;;17.50;99.90;;;;;;5054478;28;20263;-75
2022/06/30 01:06:45;;;;;;;0.30;0.30;;;17.50;99.90;;;;;;5054384;28;20179;-75
2022/06/30 01:09:12;;;;;;;0.40;0.40;;;17.40;99.90;;;;;;5054180;28;20255;-76
2022/06/30 01:14:21;;;;;;;0.30;0.30;;;17.40;99.90;;;;;;5060265;28;20235;-75
2022/06/30 01:16:47;;;;;;;0.33;0.33;;;17.30;99.90;;;;;;5059101;28;20611;-74
2022/06/30 01:19:15;;;;;;;0.20;0.20;;;17.30;99.90;;;;;;5057217;28;20167;-74
2022/06/30 01:21:58;;;;;;;0.30;0.30;;;17.30;99.90;;;;;;5057407;28;20348;-74
2022/06/30 01:24:24;;;;;;;0.30;0.30;;;17.20;99.90;;;;;;5057124;28;20178;-76
2022/06/30 01:26:56;;;;;;;0.30;0.30;;;17.20;99.90;;;;;;5053741;28;20175;-76
2022/06/30 01:29:21;;;;;;;0.33;0.33;;;17.20;99.90;;;;;;5053575;28;20188;-76
2022/06/30 01:31:47;;;;;;;0.37;0.37;;;17.10;99.90;;;;;;5053616;28;20199;-76
2022/06/30 01:34:12;;;;;;;0.30;0.30;;;17.10;99.90;;;;;;5053758;28;20178;-76
2022/06/30 01:36:38;;;;;;;0.30;0.30;;;17.10;99.90;;;;;;5053417;28;20263;-76
2022/06/30 01:39:03;;;;;;;0.30;0.30;;;17.20;99.90;;;;;;5052936;28;20178;-75
2022/06/30 01:41:29;;;;;;;0.40;0.40;;;17.20;99.90;;;;;;5053589;28;20256;-76
2022/06/30 01:43:54;;;;;;;0.30;0.30;;;17.20;99.90;;;;;;5053647;28;20201;-76
2022/06/30 01:46:20;;;;;;;0.37;0.37;;;17.20;99.90;;;;;;5053335;28;20625;-75
2022/06/30 01:48:46;;;;;;;0.40;0.40;;;17.10;99.90;;;;;;5053357;28;20175;-74
2022/06/30 01:51:11;;;;;;;0.30;0.30;;;17.10;99.90;;;;;;5052831;28;20186;-75
2022/06/30 01:53:37;;;;;;;0.30;0.30;;;17.00;99.90;;;;;;5053308;28;20171;-75
2022/06/30 01:56:02;;;;;;;0.40;0.40;;;17.00;99.90;;;;;;5053010;28;20617;-75
2022/06/30 01:58:28;;;;;;;0.30;0.30;;;16.90;99.90;;;;;;5052211;28;20171;-75
2022/06/30 02:00:54;;;;;;;0.30;0.30;;;16.90;99.90;;;;;;5052784;28;20171;-75
2022/06/30 02:03:19;;;;;;;0.30;0.30;;;16.90;99.90;;;;;;5053102;28;20250;-75
2022/06/30 02:05:45;;;;;;;0.40;0.40;;;16.90;99.90;;;;;;5053046;28;20168;-75
2022/06/30 02:08:11;;;;;;;0.30;0.30;;;16.80;99.90;;;;;;5052970;28;20186;-75
2022/06/30 02:10:36;;;;;;;0.40;0.40;;;16.80;99.90;;;;;;5052370;28;20175;-75
2022/06/30 02:13:05;;;;;;;0.30;0.30;;;16.80;99.90;;;;;;5052892;28;20203;-77
2022/06/30 02:15:34;;;;;;;0.30;0.30;;;16.80;99.90;;;;;;5052733;28;20234;-77
2022/06/30 02:18:01;;;;;;;0.40;0.40;;;16.80;99.90;;;;;;5052824;28;20175;-76
2022/06/30 02:20:27;;;;;;;0.30;0.30;;;16.80;99.90;;;;;;5052234;28;20710;-76
2022/06/30 02:22:59;;;;;;;0.30;0.30;;;16.80;99.90;;;;;;5052575;28;20191;-76
2022/06/30 02:25:27;;;;;;;0.30;0.30;;;16.80;99.90;;;;;;5052805;28;20171;-77
2022/06/30 02:27:53;;;;;;;0.37;0.37;;;16.70;99.90;;;;;;5052616;28;20215;-77
2022/06/30 02:30:19;;;;;;;0.40;0.40;;;16.70;99.90;;;;;;5052146;28;20175;-76
2022/06/30 02:32:44;;;;;;;0.40;0.40;;;16.60;99.90;;;;;;5052420;28;20199;-76
2022/06/30 02:35:10;;;;;;;0.30;0.30;;;16.60;99.90;;;;;;5052259;28;20213;-76
2022/06/30 02:37:36;;;;;;;0.30;0.30;;;16.60;99.90;;;;;;5051075;28;20218;-76
2022/06/30 02:40:03;;;;;;;0.30;0.30;;;16.50;99.90;;;;;;5052067;28;20167;-76
2022/06/30 02:42:29;;;;;;;0.30;0.30;;;16.50;99.90;;;;;;5052190;28;20676;-77
2022/06/30 02:44:54;;;;;;;0.40;0.40;;;16.50;99.90;;;;;;5052552;28;20174;-76
2022/06/30 02:47:20;;;;;;;0.40;0.40;;;16.40;99.90;;;;;;5052237;28;20321;-76
2022/06/30 02:49:45;;;;;;;0.37;0.37;;;16.40;99.90;;;;;;5052081;28;20320;-76
2022/06/30 02:52:11;;;;;;;0.30;0.30;;;16.40;99.90;;;;;;5052839;28;20191;-77
2022/06/30 02:54:37;;;;;;;0.20;0.20;;;16.30;99.90;;;;;;5052306;28;20167;-78
2022/06/30 02:57:02;;;;;;;0.40;0.40;;;16.30;99.90;;;;;;5052202;28;20539;-77
2022/06/30 02:59:28;;;;;;;0.30;0.30;;;16.30;99.90;;;;;;5051531;28;20233;-77
2022/06/30 03:01:54;;;;;;;0.30;0.30;;;16.30;99.90;;;;;;5052106;28;20214;-77
2022/06/30 03:04:21;;;;;;;0.30;0.30;;;16.30;99.90;;;;;;5051980;28;20229;-77
2022/06/30 03:06:47;;;;;;;0.30;0.30;;;16.30;99.90;;;;;;5052011;28;20175;-77
2022/06/30 03:09:12;;;;;;;0.40;0.40;;;16.30;99.90;;;;;;5051495;28;20175;-77
2022/06/30 03:11:39;;;;;;;0.30;0.30;;;16.30;99.90;;;;;;5051935;28;20202;-77
2022/06/30 03:14:04;;;;;;;0.40;0.40;;;16.20;99.90;;;;;;5051830;28;20852;-77
2022/06/30 03:16:30;;;;;;;0.40;0.40;;;16.20;99.90;;;;;;5051751;28;20302;-77
2022/06/30 03:18:56;;;;;;;0.40;0.40;;;16.20;99.90;;;;;;5051395;28;20175;-77
2022/06/30 03:21:21;;;;;;;0.30;0.30;;;16.20;99.90;;;;;;5051588;28;20240;-77
2022/06/30 03:23:47;;;;;;;0.40;0.40;;;16.10;99.90;;;;;;5051810;28;20182;-77
2022/06/30 03:26:13;;;;;;;0.40;0.40;;;16.10;99.90;;;;;;5051855;28;20182;-77
2022/06/30 03:28:38;;;;;;;0.30;0.30;;;16.10;99.90;;;;;;5051691;28;20168;-77
2022/06/30 03:31:04;;;;;;;0.30;0.30;;;16.10;99.90;;;;;;5051296;28;20668;-77
2022/06/30 03:33:30;;;;;;;0.30;0.30;;;16.10;99.90;;;;;;5051564;28;20218;-77
2022/06/30 03:35:56;;;;;;;0.30;0.30;;;16.10;99.90;;;;;;5051539;28;20471;-77
2022/06/30 03:38:22;;;;;;;0.30;0.30;;;16.10;99.90;;;;;;5051420;28;20582;-77
2022/06/30 03:40:47;;;;;;;0.30;0.30;;;16.10;99.90;;;;;;5051353;28;20187;-77
2022/06/30 03:43:13;;;;;;;0.40;0.40;;;16.10;99.90;;;;;;5051609;28;20195;-77
2022/06/30 03:45:38;;;;;;;0.30;0.30;;;16.10;99.90;;;;;;5051675;28;20686;-77
2022/06/30 03:48:06;;;;;;;0.30;0.30;;;16.10;99.90;;;;;;5051556;28;20182;-77
2022/06/30 03:50:32;;;;;;;0.33;0.33;;;16.10;99.90;;;;;;5050871;28;20183;-77
2022/06/30 03:52:59;;;;;;;0.30;0.30;;;16.10;99.90;;;;;;5051313;28;20202;-77
2022/06/30 03:55:25;;;;;;;0.40;0.40;;;16.10;99.90;;;;;;5051415;28;20207;-77
2022/06/30 03:57:50;;;;;;;0.30;0.30;;;16.00;99.90;;;;;;5050841;28;20198;-77
2022/06/30 04:00:16;;;;;;;0.30;0.30;;;16.00;99.90;;;;;;5051267;28;20553;-77
2022/06/30 04:02:42;;;;;;;0.30;0.30;;;16.00;99.90;;;;;;5051505;28;20227;-77
2022/06/30 04:05:08;;;;;;;0.40;0.40;;;16.00;99.90;;;;;;5051415;28;20253;-77
2022/06/30 04:07:42;;;;;;;0.37;0.37;;;16.10;99.90;;;;;;5051402;28;20175;-77
2022/06/30 04:10:09;;;;;;;0.47;0.47;;;16.20;99.90;;;;;;5051151;28;20175;-76
2022/06/30 04:12:35;;;;;;;0.40;0.40;;;16.20;99.90;;;;;;5051299;28;20191;-76
2022/06/30 04:15:00;;;;;;;0.40;0.40;;;16.30;99.90;;;;;;5051343;28;20671;-77
2022/06/30 04:17:26;;;;;;;0.40;0.40;;;16.40;99.90;;;;;;5051118;28;20179;-77
2022/06/30 04:19:51;;;;;;;0.30;0.30;;;16.50;99.90;;;;;;5050938;28;20179;-77
2022/06/30 04:22:17;;;;;;;0.30;0.30;;;16.60;99.90;;;;;;5052911;28;20195;-77
2022/06/30 04:24:43;;;;;;;0.40;0.40;;;16.80;99.90;;;;;;5055181;28;20179;-77
2022/06/30 04:27:08;;;;;;;0.43;0.43;;;16.90;99.90;;;;;;5055088;28;20175;-77
2022/06/30 04:29:34;;;;;;;0.37;0.37;;;17.00;99.90;;;;;;5054333;28;20297;-77
2022/06/30 04:34:44;;;;;;;0.30;0.30;;;17.10;99.90;;;;;;5054821;28;20195;-77
2022/06/30 04:37:09;;;;;;;0.20;0.20;;;17.20;99.90;;;;;;5053495;28;20179;-77
2022/06/30 04:39:35;;;;;;;0.30;0.30;;;17.30;99.90;;;;;;5054106;28;20178;-77
2022/06/30 04:42:00;;;;;;;0.30;0.30;;;17.30;99.90;;;;;;5054577;28;20199;-76
2022/06/30 04:44:26;;;;;;;0.30;0.30;;;17.40;99.90;;;;;;5054376;28;20206;-76
2022/06/30 04:46:51;;;;;;;0.33;0.33;;;17.50;99.90;;;;;;5051949;28;20228;-77
2022/06/30 04:49:17;;;;;;;0.30;0.30;;;17.50;99.90;;;;;;5043888;28;20616;-76
2022/06/30 04:51:42;;;;;;;0.30;0.30;;;17.70;99.90;;;;;;5052675;28;20199;-76
2022/06/30 04:54:08;;;;;;;0.40;0.40;;;17.80;99.90;;;;;;5054460;28;20258;-77
2022/06/30 04:56:33;;;;;;;0.30;0.30;;;18.00;99.90;;;;;;5054247;28;20215;-76
2022/06/30 04:58:59;;;;;;;0.30;0.30;;;18.30;99.90;;;;;;5053812;28;20171;-76
2022/06/30 05:01:25;;;;;;;0.30;0.30;;;18.50;99.90;;;;;;5054135;28;20190;-75
2022/06/30 05:03:50;;;;;;;0.37;0.37;;;18.70;99.90;;;;;;5054311;28;20175;-77
2022/06/30 05:06:16;;;;;;;0.40;0.40;;;18.80;99.90;;;;;;5054208;28;20232;-76
2022/06/30 05:08:42;;;;;;;0.30;0.30;;;18.90;99.90;;;;;;5054005;28;20572;-76
2022/06/30 05:11:08;;;;;;;0.33;0.33;;;19.00;99.90;;;;;;5053896;28;20175;-76
2022/06/30 05:13:34;;;;;;;0.40;0.40;;;19.00;99.90;;;;;;5054101;28;20279;-77
2022/06/30 05:15:59;;;;;;;0.40;0.40;;;19.00;99.90;;;;;;5053881;28;20203;-76
2022/06/30 05:18:26;;;;;;;0.30;0.30;;;19.20;99.90;;;;;;5054192;28;20584;-76
2022/06/30 05:20:52;;;;;;;0.30;0.30;;;19.30;99.90;;;;;;5053399;28;20529;-76
2022/06/30 05:23:18;;;;;;;0.30;0.30;;;19.40;99.90;;;;;;5053937;28;20213;-76
2022/06/30 05:28:28;;;;;;;0.30;0.30;;;19.40;96.60;;;;;;5054026;28;20178;-76
2022/06/30 05:30:55;;;;;;;0.30;0.30;;;19.50;83.80;;;;;;5052742;28;20183;-76
2022/06/30 05:33:21;;;;;;;0.30;0.30;;;19.60;51.40;;;;;;5052572;28;20664;-76
2022/06/30 05:35:52;;;;;;;0.30;0.30;;;19.50;76.70;;;;;;5053195;28;20219;-76
2022/06/30 05:38:18;;;;;;;0.30;0.30;;;19.50;69.50;;;;;;5053483;28;20210;-76
2022/06/30 05:40:46;;;;;;;0.30;0.30;;;19.50;99.90;;;;;;5053164;28;20179;-76
2022/06/30 05:43:16;;;;;;;0.33;0.33;;;19.60;96.50;;;;;;5053655;28;20274;-76
2022/06/30 05:45:44;;;;;;;0.30;0.30;;;19.70;90.80;;;;;;5053684;28;20175;-76
2022/06/30 05:48:09;;;;;;;0.30;0.30;;;19.80;99.90;;;;;;5053405;28;20206;-76
2022/06/30 05:50:35;;;;;;;0.30;0.30;;;19.80;73.10;;;;;;5052968;28;20210;-76
2022/06/30 05:53:00;;;;;;;0.30;0.30;;;19.80;99.90;;;;;;5053318;28;20202;-76
2022/06/30 05:55:27;;;;;;;0.30;0.30;;;19.80;52.10;;;;;;5053214;28;20237;-76
2022/06/30 05:57:56;;;;;;;0.30;0.30;;;19.80;94.90;;;;;;5053614;28;20206;-75
2022/06/30 06:00:25;;;;;;;0.30;0.30;;;19.80;99.90;;;;;;5052768;28;20190;-76
2022/06/30 06:02:50;;;;;;;0.30;0.30;;;19.70;99.90;;;;;;5046831;28;20738;-74
2022/06/30 06:05:16;;;;;;;0.30;0.30;;;19.90;99.90;;;;;;5053087;28;20183;-74
2022/06/30 06:07:42;;;;;;;0.30;0.30;;;20.00;99.90;;;;;;5053207;28;20179;-74
2022/06/30 06:10:09;;;;;;;0.33;0.33;;;20.20;81.40;;;;;;5052344;28;20179;-74
2022/06/30 06:12:35;;;;;;;0.30;0.30;;;20.30;69.00;;;;;;5053171;28;20199;-73
2022/06/30 06:15:01;;;;;;;0.30;0.30;;;20.40;26.00;;;;;;5053023;28;20199;-74
2022/06/30 06:17:26;;;;;;;0.33;0.33;;;20.40;25.60;;;;;;5053120;28;20671;-74
2022/06/30 06:19:52;;;;;;;0.30;0.30;;;20.40;1.00;;;;;;5052213;28;20636;-74
2022/06/30 06:22:17;;;;;;;0.30;0.30;;;20.40;33.10;;;;;;5051290;28;20198;-74
2022/06/30 06:24:43;;;;;;;0.30;0.30;;;20.40;77.10;;;;;;5052871;28;20171;-74
2022/06/30 06:27:08;;;;;;;0.30;0.30;;;20.50;25.90;;;;;;5052655;28;20175;-74
2022/06/30 06:29:34;;;;;;;0.30;0.30;;;20.50;75.10;;;;;;5052216;28;20179;-74
2022/06/30 06:31:59;;;;;;;0.40;0.40;;;20.60;54.10;;;;;;5052674;28;20210;-74
2022/06/30 06:34:25;;;;;;;0.20;0.20;;;20.60;1.00;;;;;;5052340;28;20171;-74
2022/06/30 06:36:50;;;;;;;0.30;0.30;;;20.60;23.10;;;;;;5052599;28;20211;-74
2022/06/30 06:39:16;;;;;;;0.30;0.30;;;20.70;1.00;;;;;;5051769;28;20845;-74
2022/06/30 06:41:41;;;;;;;0.30;0.30;;;20.70;9.20;;;;;;5052502;28;20199;-74
2022/06/30 06:44:07;;;;;;;0.30;0.30;;;20.80;8.40;;;;;;5052590;28;20179;-74
2022/06/30 06:46:33;;;;;;;0.30;0.30;;;20.90;35.30;;;;;;5052359;28;20894;-74
2022/06/30 06:49:03;;;;;;;0.30;0.30;;;21.10;1.00;;;;;;5051853;28;20544;-74
2022/06/30 06:51:29;;;;;;;0.30;0.30;;;21.30;1.00;;;;;;5052160;28;20179;-74
2022/06/30 06:53:55;;;;;;;0.20;0.20;;;21.30;1.00;;;;;;5052156;28;20231;-74
2022/06/30 06:56:21;;;;;;;0.33;0.33;;;21.30;1.00;;;;;;5052249;28;20249;-74
2022/06/30 06:58:46;;;;;;;0.30;0.30;;;21.50;1.00;;;;;;5052106;28;20190;-74
2022/06/30 07:01:12;;;;;;;0.37;0.37;;;21.60;1.00;;;;;;5051645;28;20179;-74
2022/06/30 07:03:38;;;;;;;0.30;0.30;;;21.70;1.00;;;;;;5052068;28;20182;-74
2022/06/30 07:06:04;;;;;;;0.30;0.30;;;21.80;1.00;;;;;;5052076;28;20550;-78
2022/06/30 07:08:29;;;;;;;0.40;0.40;;;22.10;1.00;;;;;;5051983;28;20175;-77
2022/06/30 07:10:56;;;;;;;0.40;0.40;;;22.10;1.00;;;;;;5051697;28;20186;-77
2022/06/30 07:13:23;;;;;;;0.30;0.30;;;22.30;1.00;;;;;;5052105;28;20285;-77
2022/06/30 07:15:49;;;;;;;0.40;0.40;;;22.40;1.00;;;;;;5051996;28;20250;-77
2022/06/30 07:18:14;;;;;;;0.30;0.30;;;22.30;99.90;;;;;;5051935;28;20542;-76
2022/06/30 07:20:40;;;;;;;0.40;0.40;;;22.50;99.90;;;;;;5042185;28;20184;-76
2022/06/30 07:23:05;;;;;;;0.40;0.40;;;22.60;99.90;;;;;;5040395;28;20648;-77
2022/06/30 07:25:31;;;;;;;0.40;0.40;;;22.60;99.90;;;;;;5042007;28;20680;-77
2022/06/30 07:27:56;;;;;;;0.43;0.43;;;22.70;1.00;;;;;;5034355;28;20179;-77
2022/06/30 07:30:22;;;;;;;0.30;0.30;;;22.80;1.00;;;;;;5031738;28;20180;-77
2022/06/30 07:32:48;;;;;;;0.40;0.40;;;22.90;99.90;;;;;;5031821;28;20203;-77
2022/06/30 07:35:14;;;;;;;0.40;0.40;;;23.10;99.90;;;;;;5031575;28;20208;-76
2022/06/30 07:37:40;;;;;;;0.30;0.30;;;23.30;1.00;;;;;;5031601;28;20172;-76
2022/06/30 07:40:07;;;;;;;0.20;0.20;;;23.40;99.90;;;;;;5031322;28;20317;-76
2022/06/30 07:42:33;;;;;;;0.30;0.30;;;23.70;99.90;;;;;;5031723;28;20192;-77
2022/06/30 07:44:59;;;;;;;0.30;0.30;;;23.70;1.00;;;;;;5031725;28;20172;-77
2022/06/30 07:47:25;;;;;;;0.33;0.33;;;23.80;99.90;;;;;;5031705;28;20664;-77
2022/06/30 07:49:51;;;;;;;0.20;0.20;;;24.00;50.60;;;;;;5031006;28;20176;-77
2022/06/30 07:52:16;;;;;;;0.30;0.30;;;24.50;1.00;;;;;;5031540;28;20199;-77
2022/06/30 07:54:42;;;;;;;0.40;0.40;;;25.10;99.90;;;;;;5030268;28;20176;-77
2022/06/30 07:57:07;;;;;;;0.47;0.47;;;25.40;1.00;;;;;;5033331;28;20187;-76
2022/06/30 07:59:33;;;;;;;0.30;0.30;;;25.60;99.90;;;;;;5035354;28;20175;-77
2022/06/30 08:02:00;;;;;;;0.33;0.33;;;25.90;99.90;;;;;;5035714;28;20206;-77
2022/06/30 08:04:26;;;;;;;0.30;0.30;;;26.30;99.90;;;;;;5035540;28;20732;-77
2022/06/30 08:06:52;;;;;;;0.40;0.40;;;26.60;1.00;;;;;;5036058;28;20271;-77
2022/06/30 08:09:17;;;;;;;0.40;0.40;;;26.80;1.00;;;;;;5035539;28;20450;-77
2022/06/30 08:11:43;;;;;;;0.40;0.40;;;26.80;1.40;;;;;;5035788;28;20204;-77
2022/06/30 08:14:09;;;;;;;0.40;0.40;;;27.20;1.00;;;;;;5035951;28;20645;-77
2022/06/30 08:16:34;;;;;;;0.40;0.40;;;27.40;1.00;;;;;;5035689;28;20231;-77
2022/06/30 08:19:00;;;;;;;0.37;0.37;;;27.60;1.00;;;;;;5035224;28;20172;-77
2022/06/30 08:21:26;;;;;;;0.40;0.40;;;27.70;1.00;;;;;;5035653;28;20176;-77
2022/06/30 08:23:51;;;;;;;0.30;0.30;;;27.50;1.00;;;;;;5035731;28;20280;-77
2022/06/30 08:26:17;;;;;;;0.50;0.50;;;27.70;1.00;;;;;;5035724;28;20259;-77
2022/06/30 08:28:42;;;;;;;0.40;0.40;;;27.80;1.00;;;;;;5035635;28;20175;-77
2022/06/30 08:31:08;;;;;;;0.43;0.43;;;28.00;1.00;;;;;;5034990;28;20650;-77
2022/06/30 08:33:34;;;;;;;0.43;0.43;;;28.20;1.00;;;;;;5034880;28;20739;-77
2022/06/30 08:35:59;;;;;;;0.53;0.53;;;28.40;1.00;;;;;;5035172;28;20636;-77
2022/06/30 08:38:25;;;;;;;0.57;0.57;;;28.90;1.00;;;;;;5035624;28;20237;-77
2022/06/30 08:43:35;;;;;;;0.50;0.50;;;29.10;1.00;;;;;;5035508;28;20734;-78
2022/06/30 08:46:02;;;;;;;0.60;0.60;;;29.30;1.00;;;;;;5035308;28;20180;-77
2022/06/30 08:48:28;;;;;;;0.50;0.50;;;29.50;1.00;;;;;;5035015;28;20171;-76
2022/06/30 08:51:04;;;;;;;0.50;0.50;;;29.20;1.00;;;;;;5034088;28;20233;-77
2022/06/30 08:53:37;;;;;;;0.57;0.57;;;29.00;1.00;;;;;;5034839;28;20195;-77
2022/06/30 08:56:04;;;;;;;0.60;0.60;;;29.20;1.00;;;;;;5033734;28;20219;-77
2022/06/30 08:58:30;;;;;;;0.50;0.50;;;29.50;1.00;;;;;;5035062;28;20176;-78
2022/06/30 09:00:56;;;;;;;0.40;0.40;;;29.40;1.00;;;;;;5034449;28;20183;-77
2022/06/30 09:03:21;;;;;;;0.57;0.57;;;29.70;1.00;;;;;;5035112;28;20202;-77
2022/06/30 09:05:47;;;;;;;0.60;0.60;;;30.10;1.00;;;;;;5035005;28;20603;-77
2022/06/30 09:08:14;;;;;;;0.53;0.53;;;30.40;1.00;;;;;;5034341;28;20194;-77
2022/06/30 09:10:57;;;;;;;0.50;0.50;;;30.60;1.00;;;;;;5034161;28;20668;-77
2022/06/30 09:13:24;;;;;;;0.50;0.50;;;30.90;1.00;;;;;;5034370;28;20199;-78
2022/06/30 09:15:51;;;;;;;0.50;0.50;;;30.90;1.00;;;;;;5034144;28;20672;-77
2022/06/30 09:18:28;;;;;;;0.50;0.50;;;30.90;1.00;;;;;;5034255;28;20677;-77
2022/06/30 09:20:55;;;;;;;0.70;0.70;;;30.70;1.00;;;;;;5034376;28;20176;-77
2022/06/30 09:23:27;;;;;;;0.60;0.60;;;30.50;1.00;;;;;;5034799;28;20680;-78
2022/06/30 09:25:58;;;;;;;0.57;0.57;;;30.40;1.00;;;;;;5034455;28;20184;-77
2022/06/30 09:28:44;;;;;;;0.60;0.60;;;30.70;1.00;;;;;;5034882;28;20176;-77
2022/06/30 09:31:11;;;;;;;0.50;0.50;;;31.00;1.00;;;;;;5033896;28;20183;-77
2022/06/30 09:33:39;;;;;;;0.60;0.60;;;31.20;1.00;;;;;;5034364;28;20188;-77
2022/06/30 09:36:22;;;;;;;0.50;0.50;;;31.10;1.00;;;;;;5034286;28;20541;-77
2022/06/30 09:39:13;;;;;;;0.60;0.60;;;31.10;1.00;;;;;;5033895;28;20207;-77
2022/06/30 09:41:41;;;;;;;0.57;0.57;;;31.20;1.00;;;;;;5033920;28;20278;-77
2022/06/30 09:44:17;;;;;;;0.50;0.50;;;31.20;1.00;;;;;;5033972;28;20180;-77
2022/06/30 09:47:06;;;;;;;0.50;0.50;;;31.40;1.00;;;;;;5033927;28;20590;-77
2022/06/30 09:49:40;;;;;;;0.50;0.50;;;31.50;1.00;;;;;;5033900;28;20184;-77
2022/06/30 09:52:26;;;;;;;0.40;0.40;;;31.10;1.00;;;;;;5033538;28;20574;-77
2022/06/30 09:55:06;;;;;;;0.60;0.60;;;30.70;1.00;;;;;;5033819;28;20172;-77
2022/06/30 09:57:37;;;;;;;0.40;0.40;;;30.50;1.00;;;;;;5034153;28;20179;-77
2022/06/30 10:00:07;;;;;;;0.50;0.50;;;30.40;1.00;;;;;;5033421;28;20226;-77
2022/06/30 10:02:34;;;;;;;0.63;0.63;;;30.70;1.00;;;;;;5032345;28;20816;-77
2022/06/30 10:05:01;;;;;;;0.50;0.50;;;31.00;1.00;;;;;;5033486;28;20175;-77
2022/06/30 10:07:27;;;;;;;0.70;0.70;;;30.90;1.00;;;;;;5033440;28;20195;-77
2022/06/30 10:09:54;;;;;;;0.57;0.57;;;31.10;1.00;;;;;;5033335;28;20172;-74
2022/06/30 10:12:24;;;;;;;0.57;0.57;;;31.40;1.00;;;;;;5040196;28;20222;-76
2022/06/30 10:14:52;;;;;;;0.60;0.60;;;31.50;1.00;;;;;;5042868;28;20187;-76
2022/06/30 10:17:30;;;;;;;0.60;0.60;;;30.90;1.00;;;;;;5041400;28;20255;-76
2022/06/30 10:19:57;;;;;;;0.50;0.50;;;30.80;1.00;;;;;;5043951;28;20206;-75
2022/06/30 10:22:25;;;;;;;0.60;0.60;;;30.30;1.00;;;;;;5046834;28;20203;-75
2022/06/30 10:24:52;;;;;;;0.60;0.60;;;30.40;1.00;;;;;;5046250;28;20168;-75
2022/06/30 10:27:19;;;;;;;0.53;0.53;;;30.70;1.00;;;;;;5045805;28;20175;-76
2022/06/30 10:29:58;;;;;;;0.60;0.60;;;30.70;1.00;;;;;;5046135;28;20171;-76
2022/06/30 10:32:48;;;;;;;0.50;0.50;;;31.00;1.00;;;;;;5042655;28;20201;-76
2022/06/30 10:35:46;;;;;;;0.60;0.60;;;31.40;1.00;;;;;;5043226;28;20301;-76
2022/06/30 10:38:20;;;;;;;0.63;0.63;;;31.60;1.00;;;;;;5043464;28;20172;-74
2022/06/30 10:40:53;;;;;;;0.60;0.60;;;31.50;1.00;;;;;;5041913;28;20175;-76
2022/06/30 10:43:19;;;;;;;0.70;0.70;;;31.60;1.00;;;;;;5041597;28;20238;-75
2022/06/30 10:45:59;;;;;;;0.60;0.60;;;31.80;1.00;;;;;;5042289;28;20180;-76
2022/06/30 10:48:27;;;;;;;0.60;0.60;;;32.00;1.00;;;;;;5042050;28;20175;-76
2022/06/30 10:50:53;;;;;;;0.60;0.60;;;32.20;1.00;;;;;;5040081;28;20253;-73
2022/06/30 10:53:37;;;;;;;0.50;0.50;;;32.10;1.00;;;;;;5032086;28;20195;-75
2022/06/30 10:56:04;;;;;;;0.30;0.30;;;31.80;1.00;;;;;;5032006;28;20295;-76
2022/06/30 10:58:29;;;;;;;0.40;0.40;;;32.20;1.00;;;;;;5032240;28;20168;-76
2022/06/30 11:01:01;;;;;;;0.53;0.53;;;32.10;1.00;;;;;;5031937;28;20179;-76
2022/06/30 11:03:29;;;;;;;0.60;0.60;;;31.80;1.00;;;;;;5032247;28;20202;-76
2022/06/30 11:05:56;;;;;;;0.60;0.60;;;31.40;1.00;;;;;;5031793;28;20510;-76
2022/06/30 11:11:22;;;;;;;0.50;0.50;;;31.10;1.00;;;;;;5031604;28;20168;-75
2022/06/30 11:14:01;;;;;;;0.50;0.50;;;31.20;1.00;;;;;;5043041;28;20229;-75
2022/06/30 11:16:27;;;;;;;0.50;0.50;;;31.00;1.00;;;;;;5051413;28;20225;-75
2022/06/30 11:18:53;;;;;;;0.50;0.50;;;31.30;1.00;;;;;;5051254;28;20546;-75
2022/06/30 11:21:19;;;;;;;0.60;0.60;;;31.50;1.00;;;;;;5051597;28;20179;-75
2022/06/30 11:23:46;;;;;;;0.43;0.43;;;31.80;1.00;;;;;;5051955;28;20554;-75
2022/06/30 11:28:58;;;;;;;0.60;0.60;;;32.60;1.00;;;;;;5050870;28;20193;-76
2022/06/30 11:31:34;;;;;;;0.60;0.60;;;32.30;1.00;;;;;;5051647;28;20179;-76
2022/06/30 11:34:01;;;;;;;0.53;0.53;;;31.70;1.00;;;;;;5051510;28;20199;-76
2022/06/30 11:36:27;;;;;;;0.50;0.50;;;31.80;1.00;;;;;;5050895;28;20306;-76
2022/06/30 11:39:02;;;;;;;0.50;0.50;;;32.10;1.00;;;;;;5050641;28;20270;-76
2022/06/30 11:44:15;;;;;;;0.50;0.50;;;32.70;1.00;;;;;;5051328;28;20181;-76
2022/06/30 11:46:54;;;;;;;0.40;0.40;;;33.40;1.00;;;;;;5051482;28;20261;-75
2022/06/30 11:49:21;;;;;;;0.60;0.60;;;33.40;1.00;;;;;;5050569;28;20802;-76
2022/06/30 11:51:47;;;;;;;0.50;0.50;;;32.90;1.00;;;;;;5051102;28;20310;-76
2022/06/30 11:54:15;;;;;;;0.50;0.50;;;32.50;1.00;;;;;;5051359;28;20336;-76
2022/06/30 11:56:47;;;;;;;0.33;0.33;;;32.60;1.00;;;;;;5051355;28;20271;-76
2022/06/30 11:59:13;;;;;;;0.47;0.47;;;32.70;1.00;;;;;;5050748;28;20882;-76
2022/06/30 12:01:39;;;;;;;0.30;0.30;;;32.70;1.00;;;;;;5051091;28;20775;-75
2022/06/30 12:04:17;;;;;;;0.50;0.50;;;32.50;1.00;;;;;;5051007;28;20564;-76
2022/06/30 12:06:43;;;;;;;0.43;0.43;;;32.50;1.00;;;;;;5050969;28;20222;-76
2022/06/30 12:09:10;;;;;;;0.30;0.30;;;32.70;1.00;;;;;;5050671;28;20228;-77
2022/06/30 12:11:37;;;;;;;0.40;0.40;;;32.70;1.00;;;;;;5050851;28;20742;-77
2022/06/30 12:14:03;;;;;;;0.23;0.23;;;32.80;1.00;;;;;;5051238;28;20537;-76
2022/06/30 12:16:29;;;;;;;0.30;0.30;;;33.00;1.00;;;;;;5050875;28;20203;-76
2022/06/30 12:18:55;;;;;;;0.33;0.33;;;33.10;1.00;;;;;;5043885;28;20585;-77
2022/06/30 12:21:21;;;;;;;0.30;0.30;;;33.00;1.00;;;;;;5040571;28;20187;-76
2022/06/30 12:23:48;;;;;;;0.40;0.40;;;33.20;1.00;;;;;;5031173;28;20172;-76
2022/06/30 12:26:15;;;;;;;0.45;0.45;;;33.20;1.00;;;;;;5070353;23;20253;-82
2022/06/30 12:28:47;;;;;;;0.50;0.50;;;33.40;1.00;;;;;;5057001;28;20301;-83
2022/06/30 12:31:27;;;;;;;0.28;0.28;;;33.50;1.00;;;;;;5058461;28;20182;-83
2022/06/30 12:33:54;;;;;;;0.20;0.20;;;33.70;1.00;;;;;;5056789;28;20250;-84
2022/06/30 12:36:28;;;;;;;0.20;0.20;;;34.10;1.00;;;;;;5056111;28;20565;-85
2022/06/30 12:38:54;;;;;;;0.15;0.15;;;33.90;1.00;;;;;;5056852;28;20171;-86
2022/06/30 12:41:22;;;;;;;0.20;0.20;;;34.00;1.00;;;;;;5057280;28;20641;-83
2022/06/30 12:43:50;;;;;;;0.30;0.30;;;34.20;1.00;;;;;;5059365;28;20175;-83
2022/06/30 12:46:16;;;;;;;0.20;0.20;;;34.50;1.00;;;;;;5059623;28;20719;-84
2022/06/30 12:48:48;;;;;;;0.08;0.08;;;34.80;1.00;;;;;;5059040;28;20182;-83
2022/06/30 12:51:40;;;;;;;0.22;0.22;;;34.90;1.00;;;;;;5060898;28;20171;-85
2022/06/30 12:54:11;;;;;;;0.10;0.10;;;35.00;1.00;;;;;;5058370;28;20597;-85
2022/06/30 12:56:38;;;;;;;0.25;0.25;;;34.70;1.00;;;;;;5061295;28;20271;-83
2022/06/30 12:59:12;;;;;;;0.20;0.20;;;34.20;1.00;;;;;;5062112;28;20171;-83
2022/06/30 13:01:46;;;;;;;0.10;0.10;;;34.20;1.00;;;;;;5063092;28;20200;-83
2022/06/30 13:04:25;;;;;;;0.03;0.03;;;34.10;1.00;;;;;;5063208;28;20176;-83
2022/06/30 13:06:52;;;;;;;0.10;0.10;;;33.60;1.00;;;;;;5062373;28;20182;-80
2022/06/30 13:09:24;;;;;;;0.30;0.30;;;33.60;1.00;;;;;;5063068;28;20183;-84
2022/06/30 13:12:02;;;;;;;0.20;0.20;;;33.70;1.00;;;;;;5064023;28;20200;-85